Time;durP1;ratioP1;P1;durP2;ratioP2;P2;SDS_P1;SDS_P2;PMS_P1;PMS_P2;Temp;Humidity;BMP_temperature;BMP_pressure;BME280_temperature;BME280_humidity;BME280_pressure;Samples;Min_cycle;Max_cycle;Signal;HPM_P1;HPM_P2
2023/04/25 00:02:17;;;;;;;0.40;0.37;;;;;;;9.51;75.55;94814.22;4367447;32;20299;-57
2023/04/25 00:04:43;;;;;;;1.00;0.70;;;;;;;9.60;74.97;94812.44;4366324;32;20299;-58
2023/04/25 00:07:11;;;;;;;0.00;0.00;;;;;;;9.61;74.78;94806.03;4367749;32;20202;-58
2023/04/25 00:09:37;;;;;;;1.00;0.63;;;;;;;9.74;74.73;94806.31;4372770;32;20211;-58
2023/04/25 00:12:04;;;;;;;0.40;0.40;;;;;;;9.75;74.36;94803.37;4383944;32;20215;-57
2023/04/25 00:14:33;;;;;;;0.40;0.40;;;;;;;9.78;74.34;94804.59;4377520;32;20209;-57
2023/04/25 00:17:02;;;;;;;0.30;0.30;;;;;;;9.68;74.48;94807.50;4346957;32;20244;-57
2023/04/25 00:19:30;;;;;;;0.30;0.30;;;;;;;9.68;74.21;94803.00;4334093;32;20228;-57
2023/04/25 00:21:57;;;;;;;0.50;0.50;;;;;;;9.90;73.62;94818.13;4371649;32;20275;-57
2023/04/25 00:24:24;;;;;;;2.67;0.70;;;;;;;9.83;73.59;94820.38;4374593;32;20204;-58
2023/04/25 00:26:49;;;;;;;0.77;0.77;;;;;;;9.76;73.98;94817.41;4359146;32;20241;-58
2023/04/25 00:29:17;;;;;;;0.43;0.43;;;;;;;9.89;73.96;94812.03;4375766;32;20204;-58
2023/04/25 00:31:44;;;;;;;0.37;0.37;;;;;;;9.82;74.26;94813.53;4354830;32;20259;-58
2023/04/25 00:34:09;;;;;;;0.40;0.30;;;;;;;9.73;74.75;94812.69;4351040;32;20276;-58
2023/04/25 00:36:36;;;;;;;0.73;0.50;;;;;;;9.65;74.99;94817.63;4386596;32;21310;-58
2023/04/25 00:39:06;;;;;;;0.20;0.20;;;;;;;9.59;75.46;94818.81;4384049;32;20215;-58
2023/04/25 00:41:32;;;;;;;0.47;0.47;;;;;;;9.66;75.04;94813.09;4384784;32;20220;-58
2023/04/25 00:44:01;;;;;;;0.20;0.20;;;;;;;9.76;74.68;94806.81;4368041;32;20204;-58
2023/04/25 00:46:26;;;;;;;2.00;0.70;;;;;;;9.61;75.14;94811.34;4347008;32;20220;-58
2023/04/25 00:48:53;;;;;;;0.70;0.70;;;;;;;9.61;75.15;94806.03;4355435;32;20243;-58
2023/04/25 00:51:20;;;;;;;0.40;0.40;;;;;;;9.73;74.93;94802.87;4373928;32;20207;-58
2023/04/25 00:53:47;;;;;;;0.60;0.60;;;;;;;9.72;74.35;94803.19;4337262;32;20211;-58
2023/04/25 00:56:16;;;;;;;0.40;0.40;;;;;;;9.65;74.36;94801.72;4332506;32;20203;-58
2023/04/25 00:58:43;;;;;;;0.40;0.40;;;;;;;9.86;73.92;94801.25;4361754;32;20200;-58
2023/04/25 01:01:10;;;;;;;0.53;0.53;;;;;;;9.72;74.19;94795.25;4379724;32;20287;-57
2023/04/25 01:03:43;;;;;;;0.20;0.20;;;;;;;9.82;74.18;94794.97;4315576;32;20292;-58
2023/04/25 01:06:10;;;;;;;0.53;0.53;;;;;;;9.66;74.68;94794.56;4351439;32;20240;-58
2023/04/25 01:08:39;;;;;;;0.57;0.57;;;;;;;9.59;74.70;94800.25;4349447;32;20294;-58
2023/04/25 01:11:06;;;;;;;0.73;0.73;;;;;;;9.61;75.04;94802.63;4352346;32;20223;-58
2023/04/25 01:13:36;;;;;;;0.30;0.23;;;;;;;9.74;74.43;94808.97;4378635;32;20239;-58
2023/04/25 01:16:05;;;;;;;0.23;0.23;;;;;;;9.74;74.07;94799.16;4366715;32;20242;-58
2023/04/25 01:18:32;;;;;;;0.77;0.73;;;;;;;9.81;73.77;94790.78;4356719;32;20223;-58
2023/04/25 01:21:08;;;;;;;0.57;0.57;;;;;;;9.79;73.67;94804.31;4340319;32;20299;-58
2023/04/25 01:23:34;;;;;;;0.30;0.30;;;;;;;9.88;73.28;94788.50;4367795;32;20196;-57
2023/04/25 01:26:01;;;;;;;0.40;0.40;;;;;;;9.82;73.15;94787.81;4379501;32;20207;-58
2023/04/25 01:28:33;;;;;;;0.47;0.47;;;;;;;9.84;73.09;94792.81;4355219;32;20212;-58
2023/04/25 01:30:59;;;;;;;0.63;0.63;;;;;;;9.75;74.01;94792.78;4371441;32;20296;-58
2023/04/25 01:33:24;;;;;;;1.10;0.27;;;;;;;9.68;74.33;94791.62;4382553;32;20196;-58
2023/04/25 01:35:52;;;;;;;0.50;0.50;;;;;;;9.73;73.92;94789.63;4370146;32;20206;-58
2023/04/25 01:38:17;;;;;;;0.20;0.20;;;;;;;9.61;74.04;94790.16;4386589;32;20321;-58
2023/04/25 01:40:45;;;;;;;0.50;0.50;;;;;;;9.62;74.12;94783.78;4380268;32;20200;-58
2023/04/25 01:43:14;;;;;;;0.40;0.40;;;;;;;9.45;74.73;94782.88;4362459;32;20197;-58
2023/04/25 01:45:42;;;;;;;0.33;0.33;;;;;;;9.49;74.44;94779.31;4380147;32;20300;-58
2023/04/25 01:48:13;;;;;;;1.40;0.90;;;;;;;9.61;73.62;94784.88;4353165;32;20204;-58
2023/04/25 01:50:40;;;;;;;0.20;0.20;;;;;;;9.49;74.32;94784.62;4362615;32;20392;-58
2023/04/25 01:53:12;;;;;;;0.40;0.40;;;;;;;9.51;73.92;94784.31;4354133;32;20328;-58
2023/04/25 01:55:39;;;;;;;0.73;0.73;;;;;;;9.34;74.43;94781.53;4369921;32;20284;-58
2023/04/25 01:58:09;;;;;;;0.37;0.37;;;;;;;9.45;74.04;94783.66;4378468;32;20197;-58
2023/04/25 02:00:42;;;;;;;0.30;0.30;;;;;;;9.45;74.25;94778.34;4368643;32;20227;-58
2023/04/25 02:03:10;;;;;;;0.10;0.10;;;;;;;9.45;73.91;94794.25;4344673;32;20276;-58
2023/04/25 02:05:38;;;;;;;0.60;0.60;;;;;;;9.33;74.50;94786.06;4352419;32;20256;-58
2023/04/25 02:08:09;;;;;;;0.70;0.60;;;;;;;9.52;74.02;94778.72;4351401;32;20196;-58
2023/04/25 02:10:36;;;;;;;0.23;0.23;;;;;;;9.54;73.79;94781.88;4385245;32;20200;-58
2023/04/25 02:13:05;;;;;;;0.60;0.60;;;;;;;9.49;73.69;94768.75;4359943;32;20297;-58
2023/04/25 02:15:35;;;;;;;0.60;0.60;;;;;;;9.45;73.97;94773.06;4373652;32;20266;-58
2023/04/25 02:18:00;;;;;;;1.60;0.60;;;;;;;9.62;73.24;94775.84;4376783;32;20291;-58
2023/04/25 02:20:29;;;;;;;0.20;0.20;;;;;;;9.34;73.95;94777.03;4358338;32;20197;-58
2023/04/25 02:22:56;;;;;;;0.40;0.40;;;;;;;9.32;74.04;94779.19;4345069;32;20193;-57
2023/04/25 02:25:24;;;;;;;0.00;0.00;;;;;;;9.33;73.71;94785.25;4375616;32;20224;-57
2023/04/25 02:27:52;;;;;;;0.40;0.40;;;;;;;9.43;73.44;94783.16;4379182;32;20197;-58
2023/04/25 02:30:19;;;;;;;0.10;0.10;;;;;;;9.26;73.74;94775.06;4362157;32;20281;-58
2023/04/25 02:32:49;;;;;;;0.40;0.40;;;;;;;9.37;73.58;94784.34;4382210;32;20199;-58
2023/04/25 02:35:16;;;;;;;0.40;0.40;;;;;;;9.38;73.66;94762.09;4373892;32;20245;-57
2023/04/25 02:37:41;;;;;;;0.47;0.47;;;;;;;9.46;73.12;94764.03;4358674;32;20205;-58
2023/04/25 02:40:09;;;;;;;0.20;0.20;;;;;;;9.40;73.34;94775.81;4360562;32;20287;-57
2023/04/25 02:42:34;;;;;;;1.03;0.67;;;;;;;9.33;73.56;94772.81;4350481;32;20233;-58
2023/04/25 02:45:02;;;;;;;5.00;0.60;;;;;;;9.09;74.25;94764.34;4335267;32;20289;-58
2023/04/25 02:47:30;;;;;;;0.47;0.47;;;;;;;9.17;74.33;94763.63;4345802;32;20223;-57
2023/04/25 02:49:56;;;;;;;1.00;1.00;;;;;;;9.23;74.17;94765.09;4386545;32;20270;-58
2023/04/25 02:52:25;;;;;;;0.43;0.43;;;;;;;9.15;74.14;94763.91;4386539;32;20277;-58
2023/04/25 02:54:52;;;;;;;0.20;0.20;;;;;;;9.19;73.65;94769.41;4370795;32;20189;-58
2023/04/25 02:57:17;;;;;;;0.40;0.40;;;;;;;9.22;73.58;94769.59;4348957;32;20299;-58
2023/04/25 02:59:42;;;;;;;0.10;0.10;;;;;;;9.21;73.64;94761.94;4364823;32;20289;-57
2023/04/25 03:02:18;;;;;;;0.40;0.40;;;;;;;9.16;73.53;94770.00;4378258;32;20288;-57
2023/04/25 03:04:45;;;;;;;1.70;0.70;;;;;;;9.24;73.58;94777.22;4348063;32;20290;-57
2023/04/25 03:07:12;;;;;;;0.50;0.50;;;;;;;9.23;73.11;94778.31;4343929;32;20294;-57
2023/04/25 03:09:37;;;;;;;0.20;0.20;;;;;;;9.26;73.36;94767.13;4370586;32;20339;-58
2023/04/25 03:12:04;;;;;;;0.33;0.33;;;;;;;9.10;73.97;94771.97;4379363;32;20200;-57
2023/04/25 03:14:31;;;;;;;0.33;0.33;;;;;;;8.99;74.36;94775.91;4343091;32;20204;-62
2023/04/25 03:16:58;;;;;;;0.77;0.77;;;;;;;9.15;74.50;94768.41;4364390;32;20280;-57
2023/04/25 03:19:23;;;;;;;0.73;0.73;;;;;;;8.80;74.18;94765.44;4362197;32;20280;-58
2023/04/25 03:22:10;;;;;;;0.60;0.60;;;;;;;8.92;75.47;94771.03;4356456;32;20357;-58
2023/04/25 03:24:37;;;;;;;0.73;0.73;;;;;;;9.05;76.43;94763.34;4386905;32;20341;-58
2023/04/25 03:27:02;;;;;;;0.40;0.40;;;;;;;8.96;76.80;94755.31;4379558;32;20399;-57
2023/04/25 03:29:29;;;;;;;0.40;0.40;;;;;;;8.73;76.64;94756.34;4356198;32;20284;-57
2023/04/25 03:31:58;;;;;;;0.80;0.37;;;;;;;8.54;77.37;94759.88;4373887;32;20192;-58
2023/04/25 03:34:25;;;;;;;0.27;0.27;;;;;;;8.69;77.47;94750.88;4383058;32;20295;-57
2023/04/25 03:36:52;;;;;;;0.20;0.20;;;;;;;8.80;77.29;94754.88;4381617;32;20340;-56
2023/04/25 03:39:18;;;;;;;0.27;0.27;;;;;;;8.78;77.21;94749.09;4367399;32;20292;-58
2023/04/25 03:41:45;;;;;;;0.67;0.67;;;;;;;8.83;76.64;94751.63;4379127;32;20208;-58
2023/04/25 03:44:12;;;;;;;0.43;0.43;;;;;;;8.89;76.44;94758.41;4376598;32;20382;-56
2023/04/25 03:46:38;;;;;;;1.20;1.10;;;;;;;8.67;76.79;94758.31;4322739;32;20285;-58
2023/04/25 03:49:05;;;;;;;0.20;0.20;;;;;;;8.75;76.88;94749.66;4361164;32;20330;-58
2023/04/25 03:51:35;;;;;;;0.30;0.20;;;;;;;8.84;76.47;94763.00;4336654;32;20338;-58
2023/04/25 03:54:00;;;;;;;0.30;0.30;;;;;;;8.66;77.01;94762.03;4344174;32;20289;-57
2023/04/25 03:56:26;;;;;;;0.30;0.30;;;;;;;8.56;77.48;94762.22;4345392;32;20289;-58
2023/04/25 03:58:53;;;;;;;0.20;0.20;;;;;;;8.42;77.81;94761.44;4375614;32;20220;-58
2023/04/25 04:01:19;;;;;;;0.40;0.40;;;;;;;8.51;77.89;94759.69;4325402;32;20200;-61
2023/04/25 04:03:46;;;;;;;0.50;0.50;;;;;;;8.44;78.89;94762.72;4336431;32;20301;-58
2023/04/25 04:06:13;;;;;;;0.47;0.47;;;;;;;8.41;78.72;94763.28;4350882;32;20231;-57
2023/04/25 04:08:40;;;;;;;0.50;0.50;;;;;;;8.33;78.74;94763.19;4363416;32;20368;-57
2023/04/25 04:11:08;;;;;;;2.10;0.53;;;;;;;8.31;79.33;94760.81;4333794;32;20361;-58
2023/04/25 04:13:34;;;;;;;0.70;0.40;;;;;;;8.19;80.06;94763.94;4372246;32;20288;-58
2023/04/25 04:16:01;;;;;;;0.30;0.30;;;;;;;8.24;79.90;94755.91;4384824;32;20356;-57
2023/04/25 04:18:29;;;;;;;0.53;0.53;;;;;;;8.27;80.30;94760.62;4352707;32;20293;-58
2023/04/25 04:20:57;;;;;;;0.47;0.30;;;;;;;8.35;79.37;94755.75;4369456;32;20284;-58
2023/04/25 04:23:27;;;;;;;1.20;0.63;;;;;;;8.35;79.84;94761.03;4361107;32;20295;-61
2023/04/25 04:25:54;;;;;;;0.50;0.50;;;;;;;8.22;80.50;94760.72;4382838;32;20308;-57
2023/04/25 04:28:21;;;;;;;0.10;0.10;;;;;;;8.35;80.15;94758.38;4358401;32;20291;-58
2023/04/25 04:30:50;;;;;;;0.10;0.10;;;;;;;8.43;79.77;94752.44;4342457;32;20296;-61
2023/04/25 04:33:19;;;;;;;0.10;0.10;;;;;;;8.35;80.39;94750.47;4375813;32;20291;-58
2023/04/25 04:35:52;;;;;;;0.20;0.20;;;;;;;8.45;80.10;94752.94;4385918;32;20276;-57
2023/04/25 04:38:18;;;;;;;0.63;0.47;;;;;;;8.47;79.58;94750.78;4358471;32;20347;-58
2023/04/25 04:40:44;;;;;;;0.13;0.13;;;;;;;8.52;79.79;94753.34;4376519;32;20285;-58
2023/04/25 04:43:11;;;;;;;0.20;0.20;;;;;;;8.57;79.88;94759.28;4366351;32;20292;-57
2023/04/25 04:45:40;;;;;;;0.40;0.40;;;;;;;8.39;80.35;94767.31;4373777;32;20283;-57
2023/04/25 04:48:08;;;;;;;0.40;0.40;;;;;;;8.44;80.52;94764.56;4376519;32;20304;-56
2023/04/25 04:50:35;;;;;;;0.23;0.23;;;;;;;8.41;80.78;94771.22;4360643;32;20318;-56
2023/04/25 04:53:02;;;;;;;0.43;0.43;;;;;;;8.38;80.98;94774.44;4343732;32;20289;-58
2023/04/25 04:55:29;;;;;;;0.27;0.27;;;;;;;8.41;81.49;94773.09;4319662;32;20289;-58
2023/04/25 04:57:55;;;;;;;0.20;0.20;;;;;;;8.46;81.42;94767.72;4365079;32;20276;-57
2023/04/25 05:00:21;;;;;;;0.53;0.53;;;;;;;8.46;80.64;94765.06;4320240;32;20281;-58
2023/04/25 05:02:48;;;;;;;2.43;0.43;;;;;;;8.56;80.08;94759.56;4342563;32;20256;-59
2023/04/25 05:05:14;;;;;;;0.27;0.27;;;;;;;8.61;80.11;94759.47;4379174;32;20209;-58
2023/04/25 05:07:42;;;;;;;0.33;0.33;;;;;;;8.46;80.02;94754.50;4373642;32;20287;-58
2023/04/25 05:10:14;;;;;;;0.80;0.80;;;;;;;8.45;80.71;94752.94;4375407;32;20284;-58
2023/04/25 05:12:40;;;;;;;0.40;0.40;;;;;;;8.49;80.41;94756.56;4343343;32;20413;-58
2023/04/25 05:15:07;;;;;;;0.47;0.47;;;;;;;8.33;81.03;94755.25;4374677;32;21711;-58
2023/04/25 05:17:33;;;;;;;0.37;0.37;;;;;;;8.49;80.44;94756.56;4335371;32;20607;-58
2023/04/25 05:20:00;;;;;;;0.53;0.53;;;;;;;8.50;80.35;94758.13;4362203;32;20276;-58
2023/04/25 05:22:31;;;;;;;0.30;0.30;;;;;;;8.60;80.23;94753.41;4354541;32;20351;-58
2023/04/25 05:24:56;;;;;;;0.50;0.50;;;;;;;8.54;80.51;94757.22;4374547;32;20339;-58
2023/04/25 05:27:22;;;;;;;0.50;0.40;;;;;;;8.52;81.07;94755.97;4349037;32;20350;-57
2023/04/25 05:29:49;;;;;;;0.67;0.37;;;;;;;8.45;81.54;94755.56;4356647;32;20235;-58
2023/04/25 05:32:18;;;;;;;0.30;0.30;;;;;;;8.37;81.20;94753.59;4373331;32;20288;-58
2023/04/25 05:34:45;;;;;;;0.67;0.60;;;;;;;8.59;80.42;94753.69;4338131;32;20293;-58
2023/04/25 05:37:11;;;;;;;0.53;0.53;;;;;;;8.60;80.24;94742.84;4331492;32;20302;-58
2023/04/25 05:39:38;;;;;;;0.10;0.10;;;;;;;8.46;81.09;94744.72;4357667;32;20287;-58
2023/04/25 05:42:03;;;;;;;0.40;0.40;;;;;;;8.41;82.14;94754.59;4351900;32;20298;-58
2023/04/25 05:44:31;;;;;;;0.20;0.20;;;;;;;8.49;81.56;94753.91;4372205;32;20347;-58
2023/04/25 05:46:58;;;;;;;0.20;0.20;;;;;;;8.44;82.81;94746.06;4381114;32;20292;-58
2023/04/25 05:49:25;;;;;;;0.50;0.50;;;;;;;8.37;83.21;94745.66;4371649;32;20280;-58
2023/04/25 05:51:50;;;;;;;0.57;0.57;;;;;;;8.41;82.45;94752.72;4377370;32;20382;-58
2023/04/25 05:54:25;;;;;;;0.50;0.50;;;;;;;8.49;83.26;94752.06;4339092;32;20308;-60
2023/04/25 05:56:53;;;;;;;0.50;0.50;;;;;;;8.40;83.57;94743.22;4338782;32;20200;-58
2023/04/25 05:59:18;;;;;;;0.40;0.40;;;;;;;8.47;83.12;94743.63;4348363;32;20289;-58
2023/04/25 06:01:45;;;;;;;0.60;0.60;;;;;;;8.50;83.66;94761.56;4375342;32;20321;-58
2023/04/25 06:04:10;;;;;;;0.37;0.37;;;;;;;8.55;83.41;94781.78;4389994;32;20255;-58
2023/04/25 06:06:36;;;;;;;0.63;0.63;;;;;;;8.31;84.14;94770.63;4396178;32;20355;-57
2023/04/25 06:09:02;;;;;;;0.53;0.53;;;;;;;8.49;85.23;94764.50;4369764;32;20331;-58
2023/04/25 06:11:27;;;;;;;0.60;0.60;;;;;;;8.33;85.89;94766.59;4376434;32;20297;-58
2023/04/25 06:13:54;;;;;;;0.70;0.70;;;;;;;7.88;85.64;94784.03;4359720;32;20286;-58
2023/04/25 06:16:19;;;;;;;0.60;0.60;;;;;;;7.87;87.07;94791.16;4376150;32;20196;-58
2023/04/25 06:18:45;;;;;;;0.60;0.60;;;;;;;7.65;88.46;94787.56;4348705;32;20303;-58
2023/04/25 06:21:11;;;;;;;0.43;0.43;;;;;;;7.45;89.88;94770.19;4355554;32;20232;-61
2023/04/25 06:23:38;;;;;;;0.20;0.20;;;;;;;7.37;90.54;94770.81;4343584;32;20326;-58
2023/04/25 06:26:03;;;;;;;0.27;0.27;;;;;;;7.38;91.70;94765.25;4368166;32;20254;-58
2023/04/25 06:28:29;;;;;;;0.20;0.20;;;;;;;7.48;92.23;94757.16;4385773;32;20299;-58
2023/04/25 06:30:59;;;;;;;0.50;0.33;;;;;;;7.31;93.61;94766.66;4358120;32;20215;-58
2023/04/25 06:33:24;;;;;;;0.97;0.83;;;;;;;7.50;92.86;94760.31;4335320;32;20305;-58
2023/04/25 06:35:50;;;;;;;36.83;3.50;;;;;;;7.57;92.52;94757.31;4346338;32;20303;-62
2023/04/25 06:38:20;;;;;;;1.03;0.80;;;;;;;9.30;100.00;94752.22;4360018;32;20200;-63
2023/04/25 06:40:45;;;;;;;0.57;0.53;;;;;;;11.15;100.00;94750.66;4324369;32;20223;-63
2023/04/25 06:43:12;;;;;;;0.20;0.20;;;;;;;11.70;100.00;94746.31;4335758;32;20208;-63
2023/04/25 06:45:40;;;;;;;0.30;0.30;;;;;;;12.57;86.35;94754.88;4301177;32;20194;-62
2023/04/25 06:48:07;;;;;;;0.40;0.40;;;;;;;13.21;79.82;94748.63;4363642;32;20210;-62
2023/04/25 06:50:33;;;;;;;0.33;0.33;;;;;;;13.43;75.07;94750.97;4358107;32;20400;-62
2023/04/25 06:53:01;;;;;;;0.50;0.40;;;;;;;13.65;71.86;94749.87;4337580;32;20209;-62
2023/04/25 06:55:30;;;;;;;0.80;0.57;;;;;;;13.86;69.81;94749.84;4380197;32;20201;-60
2023/04/25 06:58:00;;;;;;;0.53;0.53;;;;;;;13.53;67.43;94752.47;4361967;32;20201;-61
2023/04/25 07:00:28;;;;;;;0.77;0.77;;;;;;;12.12;71.19;94757.22;4383837;32;20193;-59
2023/04/25 07:02:54;;;;;;;0.70;0.70;;;;;;;11.01;76.03;94769.38;4348997;32;20196;-60
2023/04/25 07:05:21;;;;;;;0.40;0.40;;;;;;;10.44;79.53;94771.22;4362266;32;20205;-61
2023/04/25 07:07:46;;;;;;;2.90;0.80;;;;;;;10.00;82.92;94765.66;4381232;32;20232;-60
2023/04/25 07:10:15;;;;;;;2.00;0.70;;;;;;;9.85;82.56;94759.94;4367784;32;20200;-62
2023/04/25 07:12:44;;;;;;;0.90;0.90;;;;;;;9.53;83.81;94764.41;4375386;32;20245;-61
2023/04/25 07:15:11;;;;;;;0.53;0.53;;;;;;;9.47;84.86;94765.59;4381871;32;20294;-56
2023/04/25 07:17:37;;;;;;;0.40;0.40;;;;;;;9.45;85.57;94766.97;4376726;32;20303;-61
2023/04/25 07:20:05;;;;;;;0.73;0.73;;;;;;;9.38;85.89;94759.44;4344625;32;20233;-55
2023/04/25 07:22:33;;;;;;;1.07;0.30;;;;;;;9.49;85.86;94758.16;4360126;32;20193;-55
2023/04/25 07:24:59;;;;;;;0.93;0.93;;;;;;;9.16;86.16;94762.03;4331549;32;20198;-55
2023/04/25 07:27:25;;;;;;;0.33;0.33;;;;;;;9.41;86.47;94761.50;4362645;32;20196;-57
2023/04/25 07:29:53;;;;;;;0.20;0.20;;;;;;;9.52;85.60;94760.19;4360568;32;20233;-57
2023/04/25 07:32:21;;;;;;;0.57;0.57;;;;;;;9.36;85.27;94753.66;4373782;32;20245;-58
2023/04/25 07:34:51;;;;;;;0.60;0.60;;;;;;;9.51;84.84;94755.97;4368821;32;20230;-61
2023/04/25 07:37:18;;;;;;;0.73;0.73;;;;;;;9.52;84.99;94749.59;4372688;32;20200;-60
2023/04/25 07:39:46;;;;;;;0.90;0.90;;;;;;;9.57;85.16;94748.69;4387030;32;20252;-57
2023/04/25 07:42:24;;;;;;;4.03;1.23;;;;;;;9.69;83.77;94748.16;4348920;32;20248;-53
2023/04/25 07:44:52;;;;;;;0.67;0.67;;;;;;;9.92;83.18;94736.47;4353233;32;20288;-58
2023/04/25 07:47:22;;;;;;;0.73;0.63;;;;;;;9.70;82.56;94739.12;4372686;32;20192;-58
2023/04/25 07:49:47;;;;;;;0.67;0.67;;;;;;;9.84;82.56;94748.56;4389195;32;20207;-58
2023/04/25 07:52:15;;;;;;;1.00;1.00;;;;;;;10.07;82.32;94744.03;4346881;32;20197;-58
2023/04/25 07:54:42;;;;;;;1.10;1.10;;;;;;;9.71;84.18;94748.66;4335184;32;20330;-58
2023/04/25 07:57:07;;;;;;;0.47;0.47;;;;;;;9.73;83.91;94747.25;4332008;32;20262;-59
2023/04/25 07:59:34;;;;;;;0.57;0.57;;;;;;;14.02;87.49;94735.56;4377573;32;20259;-58
2023/04/25 08:02:02;;;;;;;1.03;0.63;;;;;;;16.10;73.14;94726.28;4389137;32;20203;-59
2023/04/25 08:04:30;;;;;;;0.63;0.63;;;;;;;17.30;62.11;94727.63;4369542;32;20311;-59
2023/04/25 08:06:56;;;;;;;0.80;0.80;;;;;;;17.06;57.87;94741.25;4331364;32;20217;-59
2023/04/25 08:09:22;;;;;;;6.10;1.10;;;;;;;17.87;58.02;94731.53;4346636;32;20236;-59
2023/04/25 08:11:48;;;;;;;13.33;1.33;;;;;;;18.66;54.78;94734.53;4362352;32;20203;-59
2023/04/25 08:14:15;;;;;;;0.80;0.80;;;;;;;18.18;51.78;94734.03;4374383;32;20207;-58
2023/04/25 08:16:41;;;;;;;0.70;0.70;;;;;;;18.29;54.59;94722.75;4364141;32;20243;-59
2023/04/25 08:19:09;;;;;;;0.77;0.77;;;;;;;18.45;51.42;94726.87;4380700;32;20272;-59
2023/04/25 08:21:35;;;;;;;0.53;0.47;;;;;;;18.62;52.38;94725.63;4342823;32;20188;-59
2023/04/25 08:24:03;;;;;;;3.40;0.77;;;;;;;17.25;50.19;94737.88;4332029;32;20216;-58
2023/04/25 08:26:31;;;;;;;0.80;0.80;;;;;;;15.37;55.48;94736.44;4353652;32;20219;-60
2023/04/25 08:28:57;;;;;;;0.43;0.43;;;;;;;14.51;59.49;94738.38;4382456;32;20260;-60
2023/04/25 08:31:26;;;;;;;0.70;0.70;;;;;;;13.36;64.87;94740.06;4383634;32;20203;-61
2023/04/25 08:33:53;;;;;;;0.47;0.47;;;;;;;12.79;66.07;94745.88;4369643;32;20223;-60
2023/04/25 08:36:21;;;;;;;0.53;0.53;;;;;;;12.44;66.61;94747.91;4356383;32;20241;-61
2023/04/25 08:38:47;;;;;;;0.60;0.47;;;;;;;12.42;66.71;94744.00;4374843;32;20243;-60
2023/04/25 08:41:16;;;;;;;1.60;0.83;;;;;;;12.38;68.06;94741.19;4371160;32;20267;-58
2023/04/25 08:43:44;;;;;;;0.33;0.33;;;;;;;12.02;68.17;94749.59;4363964;32;20204;-58
2023/04/25 08:46:14;;;;;;;0.60;0.60;;;;;;;11.87;71.01;94752.72;4357595;32;20247;-58
2023/04/25 08:48:44;;;;;;;0.80;0.80;;;;;;;11.76;70.28;94746.16;4353264;32;20210;-57
2023/04/25 08:51:27;;;;;;;0.33;0.33;;;;;;;11.69;70.34;94752.72;4320548;32;20196;-57
2023/04/25 08:54:14;;;;;;;0.80;0.80;;;;;;;11.52;70.87;94744.75;4371035;32;20240;-58
2023/04/25 08:56:44;;;;;;;0.20;0.20;;;;;;;11.58;69.19;94754.12;4376224;32;20273;-58
2023/04/25 08:59:11;;;;;;;0.43;0.43;;;;;;;11.42;69.42;94752.25;4353498;32;20209;-58
2023/04/25 09:01:39;;;;;;;0.80;0.80;;;;;;;11.83;67.98;94741.97;4322191;32;20205;-57
2023/04/25 09:04:04;;;;;;;0.60;0.60;;;;;;;11.99;66.96;94739.56;4337843;32;20203;-57
2023/04/25 09:06:34;;;;;;;0.20;0.20;;;;;;;12.13;68.81;94745.47;4359128;32;20188;-58
2023/04/25 09:09:09;;;;;;;0.47;0.47;;;;;;;11.96;63.72;94738.31;4354897;32;20211;-58
2023/04/25 09:11:37;;;;;;;0.50;0.33;;;;;;;12.21;61.14;94738.59;4348660;32;20206;-58
2023/04/25 09:14:40;;;;;;;0.73;0.73;;;;;;;12.14;60.50;94741.72;4352527;32;20180;-58
2023/04/25 09:17:07;;;;;;;0.20;0.20;;;;;;;12.32;59.50;94742.44;4361194;32;20192;-58
2023/04/25 09:19:37;;;;;;;21.23;0.50;;;;;;;12.45;57.84;94741.47;4328184;32;20296;-57
2023/04/25 09:22:05;;;;;;;0.63;0.63;;;;;;;12.64;60.04;94738.44;4346185;32;20210;-57
2023/04/25 09:24:45;;;;;;;0.20;0.20;;;;;;;12.53;57.77;94745.97;4370083;32;20248;-57
2023/04/25 09:27:29;;;;;;;0.10;0.10;;;;;;;12.65;56.57;94740.00;4375963;32;20184;-57
2023/04/25 09:30:08;;;;;;;0.40;0.40;;;;;;;12.69;58.02;94746.22;4347516;32;20268;-57
2023/04/25 09:32:33;;;;;;;0.40;0.40;;;;;;;12.67;58.44;94746.56;4344556;32;20315;-57
2023/04/25 09:34:59;;;;;;;0.40;0.40;;;;;;;12.82;56.52;94744.44;4301008;32;20204;-56
2023/04/25 09:37:29;;;;;;;0.13;0.13;;;;;;;12.73;56.68;94744.47;4299105;32;20270;-58
2023/04/25 09:40:02;;;;;;;0.63;0.63;;;;;;;12.71;54.96;94757.31;4346605;32;20185;-57
2023/04/25 09:42:31;;;;;;;0.50;0.50;;;;;;;12.50;55.81;94753.81;4348683;32;20193;-57
2023/04/25 09:45:03;;;;;;;0.27;0.27;;;;;;;12.14;56.83;94755.00;4295974;32;20249;-57
2023/04/25 09:47:29;;;;;;;0.37;0.37;;;;;;;12.12;59.96;94762.53;4358510;32;20215;-57
2023/04/25 09:50:01;;;;;;;0.83;0.83;;;;;;;12.16;57.96;94760.81;4346751;32;20265;-57
2023/04/25 09:52:38;;;;;;;0.30;0.30;;;;;;;12.31;57.44;94757.63;4345842;32;20318;-55
2023/04/25 09:55:06;;;;;;;0.17;0.17;;;;;;;12.39;58.74;94754.16;4331549;32;20186;-57
2023/04/25 09:57:48;;;;;;;0.30;0.30;;;;;;;12.31;57.45;94759.50;4346940;32;20172;-53
2023/04/25 10:00:16;;;;;;;3.40;0.93;;;;;;;12.35;56.27;94752.47;4380446;32;20177;-57
2023/04/25 10:02:50;;;;;;;0.57;0.57;;;;;;;11.98;57.18;94756.63;4374232;32;20184;-57
2023/04/25 10:05:28;;;;;;;0.23;0.23;;;;;;;12.18;58.59;94766.59;4340746;32;20177;-57
2023/04/25 10:08:02;;;;;;;0.33;0.33;;;;;;;12.24;55.73;94752.03;4354054;32;20278;-57
2023/04/25 10:10:32;;;;;;;0.47;0.40;;;;;;;12.41;57.61;94761.84;4357172;32;20185;-56
2023/04/25 10:13:00;;;;;;;1.40;0.73;;;;;;;12.36;54.81;94754.03;4328473;32;20239;-55
2023/04/25 10:15:29;;;;;;;0.50;0.40;;;;;;;12.37;56.52;94755.59;4351939;32;20203;-58
2023/04/25 10:18:02;;;;;;;0.53;0.53;;;;;;;12.43;55.70;94749.00;4388502;32;20195;-57
2023/04/25 10:20:30;;;;;;;0.40;0.40;;;;;;;12.37;58.51;94756.38;4381243;32;20181;-57
2023/04/25 10:23:08;;;;;;;0.53;0.53;;;;;;;12.34;58.51;94750.91;4325662;32;20212;-57
2023/04/25 10:25:34;;;;;;;0.60;0.60;;;;;;;12.45;58.94;94746.03;4368424;32;20310;-58
2023/04/25 10:28:06;;;;;;;0.40;0.40;;;;;;;12.65;58.53;94753.28;4352232;32;20199;-57
2023/04/25 10:30:31;;;;;;;0.27;0.27;;;;;;;12.94;59.20;94736.53;4366807;32;20211;-57
2023/04/25 10:32:59;;;;;;;0.30;0.30;;;;;;;12.96;56.22;94751.09;4371930;32;20184;-58
2023/04/25 10:35:30;;;;;;;0.60;0.60;;;;;;;12.84;55.22;94740.38;4368405;32;20208;-57
2023/04/25 10:38:12;;;;;;;0.47;0.47;;;;;;;12.56;54.38;94741.91;4368766;32;20200;-57
2023/04/25 10:40:39;;;;;;;0.63;0.47;;;;;;;12.43;56.30;94749.00;4363157;32;20253;-57
2023/04/25 10:43:38;;;;;;;0.67;0.67;;;;;;;12.20;63.20;94771.59;4326611;32;20177;-58
2023/04/25 10:46:27;;;;;;;1.00;0.23;;;;;;;11.57;68.46;94781.78;4366155;32;20277;-57
2023/04/25 10:48:58;;;;;;;1.17;0.93;;;;;;;10.94;70.38;94783.09;4358264;32;20200;-57
2023/04/25 10:51:28;;;;;;;0.80;0.43;;;;;;;10.39;73.55;94784.62;4378085;32;20248;-57
2023/04/25 10:54:11;;;;;;;0.10;0.10;;;;;;;10.49;73.92;94784.34;4345345;32;20217;-57
2023/04/25 10:56:44;;;;;;;0.37;0.37;;;;;;;10.30;75.81;94788.00;4342778;32;22291;-58
2023/04/25 10:59:27;;;;;;;0.10;0.10;;;;;;;10.16;74.41;94776.69;4344619;32;20192;-57
2023/04/25 11:01:56;;;;;;;0.73;0.63;;;;;;;10.19;75.78;94791.97;4358961;32;20252;-58
2023/04/25 11:04:30;;;;;;;0.23;0.23;;;;;;;10.31;75.91;94802.81;4353703;32;20177;-57
2023/04/25 11:07:05;;;;;;;0.33;0.33;;;;;;;10.18;76.09;94806.31;4364158;32;20184;-57
2023/04/25 11:09:45;;;;;;;0.27;0.27;;;;;;;10.42;76.33;94808.63;4312560;32;20198;-57
2023/04/25 11:12:33;;;;;;;0.10;0.10;;;;;;;10.47;76.55;94807.72;4367851;32;20215;-58
2023/04/25 11:15:05;;;;;;;0.17;0.17;;;;;;;10.57;77.21;94823.38;4370840;32;20192;-57
2023/04/25 11:17:34;;;;;;;0.10;0.10;;;;;;;10.64;76.20;94819.19;4365826;32;20188;-57
2023/04/25 11:20:00;;;;;;;0.40;0.40;;;;;;;10.58;76.64;94827.59;4331343;32;20193;-57
2023/04/25 11:22:29;;;;;;;0.13;0.13;;;;;;;10.78;73.82;94829.72;4308612;32;20201;-57
2023/04/25 11:25:16;;;;;;;0.40;0.40;;;;;;;10.76;71.31;94831.91;4350706;32;20184;-58
2023/04/25 11:27:54;;;;;;;0.23;0.23;;;;;;;10.97;71.67;94832.91;4329956;32;20189;-57
2023/04/25 11:30:24;;;;;;;2.60;0.87;;;;;;;10.99;70.66;94837.91;4336768;32;20233;-58
2023/04/25 11:32:53;;;;;;;0.67;0.67;;;;;;;11.17;69.01;94836.09;4365761;32;20275;-57
2023/04/25 11:35:22;;;;;;;0.70;0.70;;;;;;;11.34;69.53;94838.78;4315464;32;20251;-57
2023/04/25 11:37:47;;;;;;;0.27;0.27;;;;;;;11.35;68.25;94843.00;4353418;32;20252;-59
2023/04/25 11:40:15;;;;;;;0.77;0.53;;;;;;;11.15;65.73;94847.03;4376857;32;20238;-58
2023/04/25 11:42:46;;;;;;;0.47;0.20;;;;;;;10.91;66.64;94854.59;4376690;32;20275;-58
2023/04/25 11:45:14;;;;;;;0.00;0.00;;;;;;;10.61;68.88;94851.63;4344189;32;20251;-58
2023/04/25 11:47:43;;;;;;;0.17;0.17;;;;;;;10.55;71.49;94860.81;4336258;32;20176;-58